createdAt,value
2022-10-18T00:01:14.669Z,85.24
2022-10-18T00:06:14.041Z,84.93
2022-10-18T00:08:41.359Z,85.38
2022-10-18T00:11:15.404Z,85.53
2022-10-18T00:13:42.325Z,85.94
2022-10-18T00:16:17.024Z,85.91
2022-10-18T00:18:45.149Z,86.33
2022-10-18T00:21:18.851Z,85.64
2022-10-18T00:23:47.930Z,85.63
2022-10-18T00:26:35.451Z,86.04
2022-10-18T00:29:05.611Z,86.57
2022-10-18T00:31:37.909Z,86.04
2022-10-18T00:34:11.298Z,85.50
2022-10-18T00:36:41.221Z,85.88
2022-10-18T00:39:10.893Z,85.46
2022-10-18T00:41:38.148Z,84.72
2022-10-18T00:44:28.030Z,85.34
2022-10-18T00:47:09.361Z,84.61
2022-10-18T00:49:45.799Z,85.27
2022-10-18T00:52:30.126Z,86.60
2022-10-18T00:54:58.331Z,86.11
2022-10-18T00:57:26.037Z,85.67
2022-10-18T00:59:56.009Z,85.56
2022-10-18T01:02:25.359Z,86.02
2022-10-18T01:04:52.261Z,85.79
2022-10-18T01:07:44.359Z,85.67
2022-10-18T01:10:32.348Z,85.85
2022-10-18T01:13:11.011Z,85.92
2022-10-18T01:15:51.977Z,86.74
2022-10-18T01:18:43.475Z,86.04
2022-10-18T01:21:56.153Z,87.49
2022-10-18T01:24:40.984Z,87.67
2022-10-18T01:27:38.827Z,87.83
2022-10-18T01:30:38.158Z,87.26
2022-10-18T01:33:13.097Z,87.77
2022-10-18T01:35:50.439Z,87.53
2022-10-18T01:38:19.908Z,87.83
2022-10-18T01:40:49.884Z,87.70
2022-10-18T01:43:21.938Z,87.77
2022-10-18T01:45:50.121Z,88.50
2022-10-18T01:48:20.844Z,88.81
2022-10-18T01:50:50.295Z,88.58
2022-10-18T01:53:33.588Z,88.91
2022-10-18T01:56:49.083Z,88.49
2022-10-18T01:59:58.032Z,88.28
2022-10-18T02:02:51.090Z,88.39
2022-10-18T02:05:34.260Z,88.07
2022-10-18T02:08:48.069Z,87.92
2022-10-18T02:11:18.895Z,88.18
2022-10-18T02:14:01.233Z,88.03
2022-10-18T02:16:51.178Z,88.48
2022-10-18T02:19:30.450Z,87.69
2022-10-18T02:21:59.174Z,87.91
2022-10-18T02:24:36.024Z,87.80
2022-10-18T02:27:03.256Z,88.11
2022-10-18T02:29:35.141Z,88.30
2022-10-18T02:32:25.544Z,88.01
2022-10-18T02:35:04.430Z,89.45
2022-10-18T02:37:37.563Z,88.74
2022-10-18T02:40:09.565Z,89.30
2022-10-18T02:42:48.719Z,88.85
2022-10-18T02:45:16.200Z,88.94
2022-10-18T02:47:43.471Z,89.59
2022-10-18T02:50:13.173Z,89.66
2022-10-18T02:52:40.383Z,89.24
2022-10-18T02:55:09.743Z,89.87
2022-10-18T02:57:39.185Z,90.43
2022-10-18T03:00:07.402Z,90.42
2022-10-18T03:02:34.290Z,89.96
2022-10-18T03:05:01.222Z,89.23
2022-10-18T03:07:30.462Z,89.56
2022-10-18T03:09:57.521Z,89.38
2022-10-18T03:12:26.913Z,91.02
2022-10-18T03:14:56.751Z,90.25
2022-10-18T03:17:23.586Z,90.26
2022-10-18T03:19:50.485Z,90.38
2022-10-18T03:22:19.725Z,90.48
2022-10-18T03:24:46.714Z,90.24
2022-10-18T03:27:13.634Z,90.52
2022-10-18T03:29:40.731Z,90.85
2022-10-18T03:32:07.604Z,90.81
2022-10-18T03:34:36.976Z,90.59
2022-10-18T03:37:05.486Z,91.30
2022-10-18T03:39:37.077Z,91.10
2022-10-18T03:42:04.071Z,91.09
2022-10-18T03:44:32.992Z,90.54
2022-10-18T03:46:59.833Z,90.64
2022-10-18T03:49:27.701Z,90.44
2022-10-18T03:51:54.552Z,91.29
2022-10-18T03:54:21.394Z,91.86
2022-10-18T03:56:51.253Z,92.18
2022-10-18T03:59:18.142Z,91.17
2022-10-18T04:01:45.003Z,89.97
2022-10-18T04:04:11.920Z,90.50
2022-10-18T04:06:38.763Z,90.24
2022-10-18T04:09:10.204Z,90.03
2022-10-18T04:11:39.899Z,89.92
2022-10-18T04:14:06.803Z,89.79
2022-10-18T04:16:33.744Z,89.48
2022-10-18T04:19:03.126Z,89.77
2022-10-18T04:21:30.247Z,89.66
2022-10-18T04:24:00.109Z,88.81
2022-10-18T04:26:26.948Z,88.57
2022-10-18T04:28:53.868Z,89.23
2022-10-18T04:31:20.741Z,89.83
2022-10-18T04:33:49.716Z,89.69
2022-10-18T04:36:16.543Z,89.26
2022-10-18T04:38:43.425Z,89.14
2022-10-18T04:41:12.748Z,88.49
2022-10-18T04:43:42.720Z,88.89
2022-10-18T04:46:09.764Z,89.13
2022-10-18T04:48:44.071Z,89.02
2022-10-18T04:51:11.074Z,88.80
2022-10-18T04:53:37.907Z,88.37
2022-10-18T04:56:05.042Z,89.85
2022-10-18T04:58:32.549Z,89.97
2022-10-18T05:01:09.461Z,89.82
2022-10-18T05:03:39.430Z,90.49
2022-10-18T05:06:11.292Z,90.96
2022-10-18T05:08:38.508Z,91.29
2022-10-18T05:11:05.643Z,90.71
2022-10-18T05:13:32.514Z,90.70
2022-10-18T05:16:00.254Z,90.21
2022-10-18T05:18:27.348Z,89.71
2022-10-18T05:20:56.767Z,89.41
2022-10-18T05:23:26.810Z,89.40
2022-10-18T05:25:54.225Z,89.13
2022-10-18T05:28:41.103Z,89.00
2022-10-18T05:31:11.708Z,88.77
2022-10-18T05:33:38.592Z,88.73
2022-10-18T05:36:05.664Z,89.72
2022-10-18T05:38:32.796Z,89.81
2022-10-18T05:40:59.923Z,90.89
2022-10-18T05:43:30.098Z,91.17
2022-10-18T05:45:57.049Z,91.57
2022-10-18T05:48:24.158Z,90.62
2022-10-18T05:50:53.232Z,91.30
2022-10-18T05:53:37.143Z,90.88
2022-10-18T05:56:11.686Z,91.68
2022-10-18T05:58:42.062Z,91.65
2022-10-18T06:01:10.205Z,90.52
2022-10-18T06:03:40.227Z,90.09
2022-10-18T06:06:11.674Z,89.56
2022-10-18T06:08:40.414Z,89.33
2022-10-18T06:11:19.742Z,90.79
2022-10-18T06:13:51.350Z,90.30
2022-10-18T06:16:22.884Z,90.93
2022-10-18T06:18:52.715Z,90.27
2022-10-18T06:21:20.631Z,91.10
2022-10-18T06:23:58.998Z,91.73
2022-10-18T06:26:29.537Z,91.27
2022-10-18T06:28:58.953Z,91.39
2022-10-18T06:31:25.878Z,90.83
2022-10-18T06:33:52.838Z,89.77
2022-10-18T06:36:22.232Z,89.97
2022-10-18T06:38:50.076Z,89.42
2022-10-18T06:41:19.159Z,90.45
2022-10-18T06:43:56.807Z,90.21
2022-10-18T06:46:24.795Z,91.01
2022-10-18T06:48:57.665Z,89.81
2022-10-18T06:51:24.508Z,89.62
2022-10-18T06:54:06.281Z,90.05
2022-10-18T06:56:38.699Z,89.90
2022-10-18T06:59:10.309Z,90.29
2022-10-18T07:01:40.362Z,90.55
2022-10-18T07:04:09.580Z,90.74
2022-10-18T07:06:36.450Z,90.80
2022-10-18T07:09:03.888Z,90.28
2022-10-18T07:11:33.212Z,90.63
2022-10-18T07:14:03.213Z,91.45
2022-10-18T07:16:36.088Z,91.49
2022-10-18T07:19:05.280Z,91.06
2022-10-18T07:21:34.491Z,91.62
2022-10-18T07:24:03.886Z,93.88
2022-10-18T07:26:33.337Z,93.42
2022-10-18T07:29:06.620Z,92.96
2022-10-18T07:31:39.066Z,92.78
2022-10-18T07:34:10.909Z,95.26
2022-10-18T07:36:41.186Z,95.95
2022-10-18T07:39:08.228Z,95.56
2022-10-18T07:41:37.543Z,95.90
2022-10-18T07:44:05.139Z,95.16
2022-10-18T07:46:32.069Z,94.54
2022-10-18T07:48:59.655Z,92.95
2022-10-18T07:51:32.747Z,92.12
2022-10-18T07:53:59.890Z,91.72
2022-10-18T07:56:28.772Z,90.56
2022-10-18T07:58:58.194Z,90.76
2022-10-18T08:01:25.574Z,90.47
2022-10-18T08:03:53.544Z,90.51
2022-10-18T08:06:22.615Z,90.61
2022-10-18T08:08:52.306Z,89.38
2022-10-18T08:11:25.508Z,89.96
2022-10-18T08:13:57.411Z,89.36
2022-10-18T08:16:28.287Z,88.46
2022-10-18T08:19:00.313Z,88.50
2022-10-18T08:21:29.613Z,87.13
2022-10-18T08:23:56.502Z,86.75
2022-10-18T08:26:25.996Z,86.09
2022-10-18T08:29:09.845Z,85.86
2022-10-18T08:31:42.925Z,85.51
2022-10-18T08:34:09.733Z,85.75
2022-10-18T08:36:37.449Z,84.87
2022-10-18T08:39:04.341Z,83.41
2022-10-18T08:41:37.460Z,83.99
2022-10-18T08:44:26.926Z,84.24
2022-10-18T08:47:12.633Z,82.62
2022-10-18T08:49:48.496Z,82.70
2022-10-18T08:55:18.606Z,83.66
2022-10-18T08:57:52.484Z,83.90
2022-10-18T09:00:25.455Z,82.86
2022-10-18T09:03:35.909Z,83.23
2022-10-18T09:06:42.638Z,82.33
2022-10-18T09:09:18.329Z,80.78
2022-10-18T09:12:19.043Z,80.39
2022-10-18T09:15:07.960Z,80.07
2022-10-18T09:17:44.667Z,78.98
2022-10-18T09:20:38.207Z,79.23
2022-10-18T09:23:16.348Z,78.84
2022-10-18T09:25:58.332Z,80.42
2022-10-18T09:29:24.683Z,79.67
2022-10-18T09:32:59.321Z,79.11
2022-10-18T09:35:33.989Z,79.15
2022-10-18T09:38:10.651Z,78.92
2022-10-18T09:40:54.903Z,77.64
2022-10-18T09:43:39.438Z,77.65
2022-10-18T09:46:07.893Z,76.50
2022-10-18T09:48:50.332Z,75.57
2022-10-18T09:51:25.803Z,75.72
2022-10-18T09:54:12.519Z,76.71
2022-10-18T09:57:32.788Z,74.30
2022-10-18T10:00:01.753Z,71.35
2022-10-18T10:02:28.738Z,65.94
2022-10-18T10:04:55.811Z,58.56
2022-10-18T10:07:32.532Z,49.58
2022-10-18T10:10:27.340Z,43.30
2022-10-18T10:13:17.058Z,41.65
2022-10-18T10:15:52.344Z,37.56
2022-10-18T10:18:32.435Z,34.41
2022-10-18T10:21:07.618Z,31.44
2022-10-18T10:23:46.109Z,29.91
2022-10-18T10:26:33.866Z,28.82
2022-10-18T10:29:01.217Z,28.88
2022-10-18T10:31:33.574Z,27.46
2022-10-18T10:34:05.290Z,25.61
2022-10-18T10:36:35.772Z,24.50
2022-10-18T10:39:20.570Z,25.83
2022-10-18T10:41:54.139Z,25.24
2022-10-18T10:44:28.694Z,24.99
2022-10-18T10:47:00.814Z,24.20
2022-10-18T10:49:43.961Z,22.99
2022-10-18T10:52:28.587Z,24.74
2022-10-18T10:55:06.121Z,24.21
2022-10-18T10:57:46.583Z,23.77
2022-10-18T11:00:43.196Z,22.79
2022-10-18T11:03:29.243Z,21.10
2022-10-18T11:06:00.835Z,22.50
2022-10-18T11:08:38.377Z,21.83
2022-10-18T11:11:27.769Z,22.78
2022-10-18T11:14:30.553Z,21.47
2022-10-18T11:17:39.433Z,23.06
2022-10-18T11:20:19.401Z,23.80
2022-10-18T11:23:01.156Z,22.30
2022-10-18T11:25:42.185Z,23.48
2022-10-18T11:28:56.522Z,23.48
2022-10-18T11:31:42.186Z,23.76
2022-10-18T11:34:44.702Z,22.48
2022-10-18T11:37:31.106Z,21.98
2022-10-18T11:40:38.040Z,21.30
2022-10-18T11:44:01.105Z,20.08
2022-10-18T11:47:20.651Z,20.79
2022-10-18T11:50:03.371Z,19.10
2022-10-18T11:52:58.666Z,19.13
2022-10-18T11:55:49.592Z,18.92
2022-10-18T11:58:37.793Z,20.19
2022-10-18T12:01:04.586Z,19.98
2022-10-18T12:03:51.177Z,19.30
2022-10-18T12:06:30.754Z,21.39
2022-10-18T12:09:28.151Z,22.82
2022-10-18T12:12:03.082Z,24.11
2022-10-18T12:14:37.467Z,23.68
2022-10-18T12:17:51.604Z,23.10
2022-10-18T12:20:27.557Z,21.70
2022-10-18T12:23:31.787Z,24.74
2022-10-18T12:26:05.970Z,25.29
2022-10-18T12:28:38.807Z,23.85
2022-10-18T12:31:39.639Z,22.84
2022-10-18T12:34:21.353Z,23.79
2022-10-18T12:39:44.178Z,21.46
2022-10-18T12:42:28.811Z,21.86
2022-10-18T12:45:38.319Z,20.97
2022-10-18T12:48:07.335Z,20.91
2022-10-18T12:50:43.520Z,20.46
2022-10-18T12:53:10.359Z,20.16
2022-10-18T12:58:27.209Z,22.26
2022-10-18T13:01:03.841Z,21.84
2022-10-18T13:03:53.544Z,22.41
2022-10-18T13:06:23.640Z,23.90
2022-10-18T13:09:20.163Z,23.66
2022-10-18T13:11:51.787Z,24.92
2022-10-18T13:14:35.487Z,26.57
2022-10-18T13:17:45.022Z,24.80
2022-10-18T13:20:27.258Z,23.79
2022-10-18T13:23:37.121Z,23.00
2022-10-18T13:26:14.699Z,22.32
2022-10-18T13:29:08.771Z,22.75
2022-10-18T13:32:28.792Z,22.92
2022-10-18T13:34:55.850Z,22.45
2022-10-18T13:37:27.111Z,22.48
2022-10-18T13:40:24.656Z,22.74
2022-10-18T13:42:53.848Z,22.96
2022-10-18T13:45:35.767Z,23.70
2022-10-18T13:48:32.889Z,23.91
2022-10-18T13:51:38.734Z,23.91
2022-10-18T13:54:29.863Z,24.22
2022-10-18T13:57:31.727Z,24.84
2022-10-18T14:00:19.662Z,25.42
2022-10-18T14:03:31.730Z,25.71
2022-10-18T14:06:19.291Z,24.97
2022-10-18T14:09:25.485Z,25.50
2022-10-18T14:12:33.789Z,24.71
2022-10-18T14:15:17.698Z,25.31
2022-10-18T14:18:17.496Z,26.31
2022-10-18T14:21:13.347Z,27.41
2022-10-18T14:23:44.817Z,27.82
2022-10-18T14:26:15.479Z,26.92
2022-10-18T14:28:59.049Z,27.04
2022-10-18T14:31:27.633Z,26.54
2022-10-18T14:33:58.265Z,27.49
2022-10-18T14:36:36.141Z,28.06
2022-10-18T14:39:15.422Z,28.59
2022-10-18T14:41:56.442Z,29.47
2022-10-18T14:44:33.332Z,29.90
2022-10-18T14:47:00.258Z,31.17
2022-10-18T14:49:27.501Z,31.77
2022-10-18T14:52:00.361Z,32.78
2022-10-18T14:54:37.704Z,34.23
2022-10-18T14:57:07.010Z,36.04
2022-10-18T15:00:06.143Z,39.25
2022-10-18T15:02:37.716Z,41.07
2022-10-18T15:05:20.517Z,41.64
2022-10-18T15:07:50.596Z,42.59
2022-10-18T15:10:37.751Z,43.82
2022-10-18T15:13:11.137Z,44.43
2022-10-18T15:15:39.719Z,44.17
2022-10-18T15:18:08.526Z,43.26
2022-10-18T15:20:42.584Z,44.58
2022-10-18T15:23:39.032Z,45.69
2022-10-18T15:26:13.130Z,46.65
2022-10-18T15:29:00.401Z,47.34
2022-10-18T15:31:35.225Z,47.38
2022-10-18T15:34:17.850Z,48.27
2022-10-18T15:36:45.847Z,48.59
2022-10-18T15:39:22.411Z,48.86
2022-10-18T15:42:01.562Z,49.81
2022-10-18T15:44:34.770Z,50.57
2022-10-18T15:47:20.158Z,50.74
2022-10-18T15:49:47.082Z,51.00
2022-10-18T15:52:37.870Z,51.82
2022-10-18T15:55:30.244Z,51.97
2022-10-18T15:58:17.888Z,52.48
2022-10-18T16:00:46.385Z,52.91
2022-10-18T16:03:13.957Z,53.05
2022-10-18T16:05:43.925Z,53.19
2022-10-18T16:08:31.898Z,53.75
2022-10-18T16:11:01.940Z,54.02
2022-10-18T16:13:31.365Z,54.10
2022-10-18T16:16:00.812Z,54.07
2022-10-18T16:18:35.346Z,55.30
2022-10-18T16:21:04.261Z,56.28
2022-10-18T16:23:31.071Z,55.33
2022-10-18T16:25:58.306Z,55.82
2022-10-18T16:28:28.583Z,55.28
2022-10-18T16:31:01.266Z,55.22
2022-10-18T16:33:28.803Z,55.69
2022-10-18T16:36:01.390Z,55.55
2022-10-18T16:38:48.845Z,56.36
2022-10-18T16:41:17.440Z,56.51
2022-10-18T16:43:47.737Z,57.10
2022-10-18T16:46:22.638Z,57.64
2022-10-18T16:48:55.890Z,57.46
2022-10-18T16:51:27.340Z,57.52
2022-10-18T16:53:55.205Z,58.60
2022-10-18T16:56:33.826Z,58.77
2022-10-18T16:59:03.989Z,59.64
2022-10-18T17:01:34.421Z,58.93
2022-10-18T17:04:02.188Z,59.55
2022-10-18T17:06:35.349Z,59.98
2022-10-18T17:09:03.437Z,59.71
2022-10-18T17:11:31.156Z,59.96
2022-10-18T17:14:01.330Z,60.37
2022-10-18T17:16:35.428Z,60.98
2022-10-18T17:19:09.736Z,62.09
2022-10-18T17:21:36.898Z,61.96
2022-10-18T17:24:06.405Z,62.22
2022-10-18T17:26:34.720Z,61.42
2022-10-18T17:29:06.502Z,61.86
2022-10-18T17:31:36.182Z,61.71
2022-10-18T17:34:03.942Z,62.61
2022-10-18T17:36:36.217Z,62.23
2022-10-18T17:39:06.320Z,62.44
2022-10-18T17:41:33.735Z,61.79
2022-10-18T17:44:09.187Z,62.10
2022-10-18T17:46:38.930Z,61.89
2022-10-18T17:49:05.981Z,62.08
2022-10-18T17:51:46.896Z,61.74
2022-10-18T17:54:14.276Z,62.49
2022-10-18T17:56:45.577Z,62.23
2022-10-18T17:59:17.994Z,61.88
2022-10-18T18:01:48.389Z,62.69
2022-10-18T18:04:19.162Z,63.47
2022-10-18T18:06:52.975Z,62.24
2022-10-18T18:09:21.092Z,62.41
2022-10-18T18:11:54.784Z,61.63
2022-10-18T18:14:25.685Z,61.11
2022-10-18T18:16:52.896Z,61.91
2022-10-18T18:19:27.183Z,61.40
2022-10-18T18:21:59.128Z,61.71
2022-10-18T18:24:29.238Z,61.44
2022-10-18T18:26:59.153Z,60.20
2022-10-18T18:29:27.916Z,59.13
2022-10-18T18:31:55.173Z,59.19
2022-10-18T18:34:22.634Z,60.09
2022-10-18T18:36:52.048Z,59.85
2022-10-18T18:39:26.522Z,60.19
2022-10-18T18:41:53.766Z,59.84
2022-10-18T18:44:22.353Z,59.29
2022-10-18T18:46:52.264Z,58.91
2022-10-18T18:49:29.337Z,59.61
2022-10-18T18:51:58.673Z,60.00
2022-10-18T18:54:29.829Z,59.77
2022-10-18T18:57:05.427Z,60.16
2022-10-18T18:59:43.915Z,59.83
2022-10-18T19:02:15.707Z,59.68
2022-10-18T19:04:48.131Z,60.68
2022-10-18T19:07:18.348Z,60.60
2022-10-18T19:09:49.169Z,60.46
2022-10-18T19:12:20.422Z,61.27
2022-10-18T19:14:52.982Z,61.36
2022-10-18T19:17:24.389Z,60.94
2022-10-18T19:19:52.238Z,60.75
2022-10-18T19:22:27.969Z,61.36
2022-10-18T19:24:55.351Z,61.18
2022-10-18T19:27:22.292Z,61.07
2022-10-18T19:29:53.780Z,61.33
2022-10-18T19:32:23.182Z,60.87
2022-10-18T19:34:52.354Z,60.25
2022-10-18T19:37:23.893Z,61.31
2022-10-18T19:39:50.949Z,61.36
2022-10-18T19:42:21.126Z,62.26
2022-10-18T19:44:53.541Z,61.32
2022-10-18T19:47:22.970Z,61.69
2022-10-18T19:49:50.379Z,61.51
2022-10-18T19:52:17.476Z,61.14
2022-10-18T19:54:45.260Z,60.68
2022-10-18T19:57:12.362Z,61.35
2022-10-18T19:59:42.537Z,61.03
2022-10-18T20:02:15.314Z,60.64
2022-10-18T20:04:44.834Z,60.55
2022-10-18T20:07:14.661Z,59.96
2022-10-18T20:09:41.820Z,59.69
2022-10-18T20:12:11.401Z,58.84
2022-10-18T20:14:38.623Z,58.90
2022-10-18T20:17:06.313Z,58.29
2022-10-18T20:19:33.505Z,58.65
2022-10-18T20:22:00.785Z,58.62
2022-10-18T20:24:33.832Z,59.05
2022-10-18T20:27:00.973Z,59.63
2022-10-18T20:29:28.227Z,59.78
2022-10-18T20:31:58.077Z,59.33
2022-10-18T20:34:26.287Z,58.87
2022-10-18T20:37:05.475Z,59.81
2022-10-18T20:39:33.636Z,59.84
2022-10-18T20:42:00.694Z,59.67
2022-10-18T20:44:28.082Z,60.47
2022-10-18T20:46:57.318Z,59.98
2022-10-18T20:49:24.429Z,60.29
2022-10-18T20:51:51.523Z,60.24
2022-10-18T20:54:19.095Z,60.73
2022-10-18T20:56:48.312Z,60.51
2022-10-18T20:59:15.881Z,60.98
2022-10-18T21:01:43.479Z,60.03
2022-10-18T21:04:11.158Z,60.38
2022-10-18T21:06:44.706Z,60.42
2022-10-18T21:09:16.075Z,60.08
2022-10-18T21:11:45.954Z,59.88
2022-10-18T21:14:16.285Z,59.82
2022-10-18T21:16:46.787Z,60.44
2022-10-18T21:19:24.407Z,60.12
2022-10-18T21:22:00.328Z,60.14
2022-10-18T21:24:30.588Z,60.13
2022-10-18T21:26:57.730Z,60.56
2022-10-18T21:29:24.997Z,60.19
2022-10-18T21:31:59.492Z,60.50
2022-10-18T21:34:29.704Z,61.22
2022-10-18T21:36:56.663Z,60.82
2022-10-18T21:41:51.563Z,62.02
2022-10-18T21:44:23.701Z,62.37
2022-10-18T21:46:50.858Z,62.92
2022-10-18T21:49:23.482Z,63.56
2022-10-18T21:51:52.944Z,63.14
2022-10-18T21:54:20.426Z,64.17
2022-10-18T21:56:47.604Z,63.77
2022-10-18T21:59:19.804Z,64.15
2022-10-18T22:01:47.023Z,64.41
2022-10-18T22:04:21.663Z,65.75
2022-10-18T22:06:49.507Z,66.01
2022-10-18T22:09:17.076Z,66.58
2022-10-18T22:11:49.757Z,66.74
2022-10-18T22:14:25.289Z,67.50
2022-10-18T22:16:52.626Z,68.10
2022-10-18T22:19:20.133Z,68.85
2022-10-18T22:21:47.636Z,68.09
2022-10-18T22:24:14.728Z,68.23
2022-10-18T22:26:44.054Z,69.06
2022-10-18T22:29:20.320Z,69.09
2022-10-18T22:31:52.573Z,69.25
2022-10-18T22:34:24.016Z,69.24
2022-10-18T22:36:51.202Z,69.60
2022-10-18T22:39:18.228Z,69.51
2022-10-18T22:41:47.740Z,68.93
2022-10-18T22:44:15.094Z,68.92
2022-10-18T22:46:44.791Z,68.80
2022-10-18T22:49:12.174Z,68.95
2022-10-18T22:51:39.322Z,69.22
2022-10-18T22:54:08.787Z,69.43
2022-10-18T22:56:35.857Z,69.55
2022-10-18T22:59:05.338Z,69.05
2022-10-18T23:01:34.746Z,68.22
2022-10-18T23:04:02.025Z,67.76
2022-10-18T23:06:34.259Z,67.97
2022-10-18T23:09:10.019Z,67.68
2022-10-18T23:11:37.596Z,66.47
2022-10-18T23:14:06.810Z,66.09
2022-10-18T23:16:38.858Z,66.08
2022-10-18T23:19:05.900Z,66.96
2022-10-18T23:21:35.211Z,66.56
2022-10-18T23:24:05.262Z,67.29
2022-10-18T23:26:34.391Z,68.57
2022-10-18T23:29:01.389Z,70.43
2022-10-18T23:31:33.382Z,70.44
2022-10-18T23:34:05.186Z,70.42
2022-10-18T23:36:36.335Z,71.03
2022-10-18T23:39:06.467Z,71.27
2022-10-18T23:41:33.395Z,70.68
2022-10-18T23:44:02.683Z,70.49
2022-10-18T23:46:29.574Z,70.19
2022-10-18T23:48:56.414Z,70.01
2022-10-18T23:51:27.939Z,69.85
2022-10-18T23:53:57.783Z,69.13
2022-10-18T23:56:24.714Z,69.57
2022-10-18T23:58:53.859Z,69.50
